High Force — 3FMA2 — position and weather

sailwx.info

Track history (hours):
 
Tides and Currents Weather Stations Pressure Air Temp Water Temp Dewpoint Dewpoint Depression Visibility Wind Speed Wind Dir Waves Ship Positions

High Force

Last reported at 2017-Nov-12 12:16 UTC. Time now 2017-Nov-24 09:38 UTC.
Position S 24°44' W 044°52'.
Warning: this ship's position is 11 days out of date.

Length 186 m; draft 7.2 m.

Type: Tanker. MMSI: 351838000.

Date/timePositionNaut miles runAvg speedWind from/ knotsBaromVisibWave heightAir tempDewpointWater temp
2017-Nov-12 12:16S 24°44' W 044°52'313.5
2017-Nov-12 12:00S 24°44' W 044°55'713.9
2017-Nov-12 11:31S 24°45' W 045°03'714.1
2017-Nov-12 11:01S 24°46' W 045°11'714.2
2017-Nov-12 10:31S 24°46' W 045°18'714.3
2017-Nov-12 10:01S 24°46' W 045°26'714.6
2017-Nov-12 09:31S 24°46' W 045°34'714.3
2017-Nov-12 09:01S 24°46' W 045°42'714.3
2017-Nov-12 08:31S 24°46' W 045°50'714.0
2017-Nov-12 08:01S 24°46' W 045°58'714.1
2017-Nov-12 07:31S 24°46' W 046°06'612.5
2017-Nov-12 07:00S 24°42' W 046°11'713.8
2017-Nov-12 06:30S 24°36' W 046°15'713.7
2017-Nov-12 06:00S 24°30' W 046°18'713.8
2017-Nov-12 05:30S 24°24' W 046°22'713.2
2017-Nov-12 05:00S 24°18' W 046°24'714.0
2017-Nov-12 04:30S 24°11' W 046°23'713.8
2017-Nov-12 04:00S 24°04' W 046°23'5 9.9
2017-Nov-12 03:30S 23°60' W 046°20'3 5.2
2017-Nov-12 02:59S 23°57' W 046°18'4 7.6
2017-Nov-12 02:29S 23°55' W 046°22'  
2017-Nov-04 18:01S 23°55' W 046°22'0 0.0
2017-Nov-04 17:31S 23°55' W 046°22'0 0.0
2017-Nov-04 17:03S 23°55' W 046°22'0 0.1
2017-Nov-04 16:55S 23°55' W 046°22'1 2.5
2017-Nov-04 16:30S 23°55' W 046°21'4 8.7
2017-Nov-04 16:00S 23°58' W 046°18'3 6.4
2017-Nov-04 15:30S 24°00' W 046°20'3 5.0
2017-Nov-04 15:00S 24°03' W 046°21'3 5.3
2017-Nov-04 14:30S 24°05' W 046°22'4 8.9
2017-Nov-04 14:00S 24°10' W 046°22'5 9.6
2017-Nov-04 13:30S 24°14' W 046°19'0 0.9
2017-Nov-04 12:58S 24°14' W 046°19'0 0.0
2017-Nov-04 12:22S 24°14' W 046°19'0 0.1
2017-Nov-04 11:58S 24°14' W 046°19'0 0.0
2017-Nov-04 11:28S 24°14' W 046°19'0 0.1
2017-Nov-04 10:58S 24°14' W 046°19'0 0.1
2017-Nov-04 10:28S 24°14' W 046°19'0 0.1
2017-Nov-04 09:58S 24°14' W 046°19'0 0.0
2017-Nov-04 09:28S 24°14' W 046°19'0 0.0
2017-Nov-04 08:58S 24°14' W 046°19'0 0.1
2017-Nov-04 08:28S 24°14' W 046°19'0 0.0
2017-Nov-04 07:58S 24°14' W 046°19'0 0.0
2017-Nov-04 07:22S 24°14' W 046°19'0 0.0
2017-Nov-04 06:52S 24°14' W 046°19'0 0.0
2017-Nov-04 06:28S 24°14' W 046°19'0 0.1
2017-Nov-04 05:58S 24°14' W 046°19'0 0.0
2017-Nov-04 05:28S 24°14' W 046°19'0 0.0
2017-Nov-04 04:52S 24°14' W 046°19'0 0.0
2017-Nov-04 04:28S 24°14' W 046°19'0 0.0
2017-Nov-04 03:52S 24°14' W 046°19'0 0.0
2017-Nov-04 03:28S 24°14' W 046°19'0 0.0
2017-Nov-04 02:58S 24°14' W 046°19'0 0.0
2017-Nov-04 02:28S 24°14' W 046°19'0 0.1
2017-Nov-04 01:55S 24°14' W 046°19'0 0.0
2017-Nov-04 01:28S 24°14' W 046°19'0 0.0
2017-Nov-04 00:58S 24°14' W 046°19'0 0.0
2017-Nov-04 00:28S 24°14' W 046°19'0 0.0
2017-Nov-03 23:58S 24°14' W 046°19'0 0.0
2017-Nov-03 23:28S 24°14' W 046°19'0 0.0
2017-Nov-03 22:52S 24°14' W 046°19'0 0.0
2017-Nov-03 22:16S 24°14' W 046°19'0 0.0
2017-Nov-03 21:55S 24°14' W 046°19'0 0.0
2017-Nov-03 21:22S 24°14' W 046°19'0 0.1
2017-Nov-03 20:58S 24°14' W 046°19'0 0.0
2017-Nov-03 20:28S 24°14' W 046°19'0 0.0
2017-Nov-03 19:58S 24°14' W 046°19'0 0.0
2017-Nov-03 19:28S 24°14' W 046°19'0 0.0
2017-Nov-03 18:58S 24°14' W 046°19'0 0.0
2017-Nov-03 18:22S 24°14' W 046°19'0 0.0
2017-Nov-03 17:58S 24°14' W 046°19'0 0.0
2017-Nov-03 17:25S 24°14' W 046°19'0 0.0
2017-Nov-03 16:58S 24°14' W 046°19'0 0.0
2017-Nov-03 16:28S 24°14' W 046°19'0 0.0
2017-Nov-03 15:52S 24°14' W 046°19'0 0.0
2017-Nov-03 15:22S 24°14' W 046°19'0 0.0
2017-Nov-03 14:52S 24°14' W 046°19'0 0.0
2017-Nov-03 14:22S 24°14' W 046°19'0 0.0
2017-Nov-03 13:58S 24°14' W 046°19'0 0.0
2017-Nov-03 13:16S 24°14' W 046°19'0 0.0
2017-Nov-03 12:52S 24°14' W 046°19'0 0.1
2017-Nov-03 12:28S 24°14' W 046°19'0 0.1
2017-Nov-03 11:58S 24°14' W 046°19'0 0.0
2017-Nov-03 11:25S 24°14' W 046°19'0 0.1
2017-Nov-03 10:58S 24°14' W 046°19'0 0.1
2017-Nov-03 10:28S 24°14' W 046°19'0 0.1
2017-Nov-03 09:58S 24°14' W 046°19'0 0.0
2017-Nov-03 09:28S 24°14' W 046°19'0 0.0
2017-Nov-03 08:52S 24°14' W 046°19'0 0.0
2017-Nov-03 08:10S 24°14' W 046°19'0 0.1
2017-Nov-03 07:46S 24°14' W 046°19'0 0.1
2017-Nov-03 07:25S 24°14' W 046°19'0 0.0
2017-Nov-03 06:58S 24°14' W 046°19'0 0.1
2017-Nov-03 06:28S 24°14' W 046°19'0 0.1
2017-Nov-03 05:58S 24°14' W 046°19'0 0.0
2017-Nov-03 05:28S 24°14' W 046°19'0 0.1
2017-Nov-03 04:58S 24°14' W 046°19'0 0.0
2017-Nov-03 04:28S 24°14' W 046°19'0 0.0
2017-Nov-03 03:52S 24°14' W 046°19'0 0.0
2017-Nov-03 03:28S 24°14' W 046°19'0 0.0
2017-Nov-03 02:58S 24°14' W 046°19'0 0.0
2017-Nov-03 02:28S 24°14' W 046°19'0 0.0
2017-Nov-03 01:58S 24°14' W 046°19'0 0.0
2017-Nov-03 01:28S 24°14' W 046°19'0 0.0
2017-Nov-03 00:52S 24°14' W 046°19'0 0.0
2017-Nov-03 00:28S 24°14' W 046°19'0 0.0
2017-Nov-02 23:58S 24°14' W 046°19'0 0.0
2017-Nov-02 23:28S 24°14' W 046°19'0 0.0
2017-Nov-02 22:58S 24°14' W 046°19'0 0.0
2017-Nov-02 22:28S 24°14' W 046°19'0 0.0
2017-Nov-02 21:52S 24°14' W 046°19'0 0.0
2017-Nov-02 21:28S 24°14' W 046°19'0 0.0
2017-Nov-02 20:58S 24°14' W 046°19'0 0.0
2017-Nov-02 19:40S 24°14' W 046°19'0 0.0
2017-Nov-02 19:28S 24°14' W 046°19'0 0.0
2017-Nov-02 18:58S 24°14' W 046°19'0 0.0
2017-Nov-02 18:28S 24°14' W 046°19'0 0.0
2017-Nov-02 17:58S 24°14' W 046°19'0 0.0
2017-Nov-02 17:04S 24°14' W 046°19'0 0.1
2017-Nov-02 16:58S 24°14' W 046°19'0 0.0
2017-Nov-02 16:28S 24°14' W 046°19'0 0.0
2017-Nov-02 13:52S 24°14' W 046°19'0 0.0
2017-Nov-02 13:28S 24°14' W 046°19'0 0.0
2017-Nov-02 12:46S 24°14' W 046°19'0 0.0
2017-Nov-02 12:22S 24°14' W 046°19'  
Track history (hours):
 
Tides and Currents Weather Stations Pressure Air Temp Water Temp Dewpoint Dewpoint Depression Visibility Wind Speed Wind Dir Waves Ship Positions

High Force

Last reported at 2017-Nov-12 12:16 UTC. Time now 2017-Nov-24 09:38 UTC.
Position S 24°44' W 044°52'.
Warning: this ship's position is 11 days out of date.

Length 186 m; draft 7.2 m.

Type: Tanker. MMSI: 351838000.

Date/timePositionNaut miles runAvg speedWind from/ knotsBaromVisibWave heightAir tempDewpointWater temp
2017-Nov-12 12:16S 24°44' W 044°52'313.5
2017-Nov-12 12:00S 24°44' W 044°55'713.9
2017-Nov-12 11:31S 24°45' W 045°03'714.1
2017-Nov-12 11:01S 24°46' W 045°11'714.2
2017-Nov-12 10:31S 24°46' W 045°18'714.3
2017-Nov-12 10:01S 24°46' W 045°26'714.6
2017-Nov-12 09:31S 24°46' W 045°34'714.3
2017-Nov-12 09:01S 24°46' W 045°42'714.3
2017-Nov-12 08:31S 24°46' W 045°50'714.0
2017-Nov-12 08:01S 24°46' W 045°58'714.1
2017-Nov-12 07:31S 24°46' W 046°06'612.5
2017-Nov-12 07:00S 24°42' W 046°11'713.8
2017-Nov-12 06:30S 24°36' W 046°15'713.7
2017-Nov-12 06:00S 24°30' W 046°18'713.8
2017-Nov-12 05:30S 24°24' W 046°22'713.2
2017-Nov-12 05:00S 24°18' W 046°24'714.0
2017-Nov-12 04:30S 24°11' W 046°23'713.8
2017-Nov-12 04:00S 24°04' W 046°23'5 9.9
2017-Nov-12 03:30S 23°60' W 046°20'3 5.2
2017-Nov-12 02:59S 23°57' W 046°18'4 7.6
2017-Nov-12 02:29S 23°55' W 046°22'  
2017-Nov-04 18:01S 23°55' W 046°22'0 0.0
2017-Nov-04 17:31S 23°55' W 046°22'0 0.0
2017-Nov-04 17:03S 23°55' W 046°22'0 0.1
2017-Nov-04 16:55S 23°55' W 046°22'1 2.5
2017-Nov-04 16:30S 23°55' W 046°21'4 8.7
2017-Nov-04 16:00S 23°58' W 046°18'3 6.4
2017-Nov-04 15:30S 24°00' W 046°20'3 5.0
2017-Nov-04 15:00S 24°03' W 046°21'3 5.3
2017-Nov-04 14:30S 24°05' W 046°22'4 8.9
2017-Nov-04 14:00S 24°10' W 046°22'5 9.6
2017-Nov-04 13:30S 24°14' W 046°19'0 0.9
2017-Nov-04 12:58S 24°14' W 046°19'0 0.0
2017-Nov-04 12:22S 24°14' W 046°19'0 0.1
2017-Nov-04 11:58S 24°14' W 046°19'0 0.0
2017-Nov-04 11:28S 24°14' W 046°19'0 0.1
2017-Nov-04 10:58S 24°14' W 046°19'0 0.1
2017-Nov-04 10:28S 24°14' W 046°19'0 0.1
2017-Nov-04 09:58S 24°14' W 046°19'0 0.0
2017-Nov-04 09:28S 24°14' W 046°19'0 0.0
2017-Nov-04 08:58S 24°14' W 046°19'0 0.1
2017-Nov-04 08:28S 24°14' W 046°19'0 0.0
2017-Nov-04 07:58S 24°14' W 046°19'0 0.0
2017-Nov-04 07:22S 24°14' W 046°19'0 0.0
2017-Nov-04 06:52S 24°14' W 046°19'0 0.0
2017-Nov-04 06:28S 24°14' W 046°19'0 0.1
2017-Nov-04 05:58S 24°14' W 046°19'0 0.0
2017-Nov-04 05:28S 24°14' W 046°19'0 0.0
2017-Nov-04 04:52S 24°14' W 046°19'0 0.0
2017-Nov-04 04:28S 24°14' W 046°19'0 0.0
2017-Nov-04 03:52S 24°14' W 046°19'0 0.0
2017-Nov-04 03:28S 24°14' W 046°19'0 0.0
2017-Nov-04 02:58S 24°14' W 046°19'0 0.0
2017-Nov-04 02:28S 24°14' W 046°19'0 0.1
2017-Nov-04 01:55S 24°14' W 046°19'0 0.0
2017-Nov-04 01:28S 24°14' W 046°19'0 0.0
2017-Nov-04 00:58S 24°14' W 046°19'0 0.0
2017-Nov-04 00:28S 24°14' W 046°19'0 0.0
2017-Nov-03 23:58S 24°14' W 046°19'0 0.0
2017-Nov-03 23:28S 24°14' W 046°19'0 0.0
2017-Nov-03 22:52S 24°14' W 046°19'0 0.0
2017-Nov-03 22:16S 24°14' W 046°19'0 0.0
2017-Nov-03 21:55S 24°14' W 046°19'0 0.0
2017-Nov-03 21:22S 24°14' W 046°19'0 0.1
2017-Nov-03 20:58S 24°14' W 046°19'0 0.0
2017-Nov-03 20:28S 24°14' W 046°19'0 0.0
2017-Nov-03 19:58S 24°14' W 046°19'0 0.0
2017-Nov-03 19:28S 24°14' W 046°19'0 0.0
2017-Nov-03 18:58S 24°14' W 046°19'0 0.0
2017-Nov-03 18:22S 24°14' W 046°19'0 0.0
2017-Nov-03 17:58S 24°14' W 046°19'0 0.0
2017-Nov-03 17:25S 24°14' W 046°19'0 0.0
2017-Nov-03 16:58S 24°14' W 046°19'0 0.0
2017-Nov-03 16:28S 24°14' W 046°19'0 0.0
2017-Nov-03 15:52S 24°14' W 046°19'0 0.0
2017-Nov-03 15:22S 24°14' W 046°19'0 0.0
2017-Nov-03 14:52S 24°14' W 046°19'0 0.0
2017-Nov-03 14:22S 24°14' W 046°19'0 0.0
2017-Nov-03 13:58S 24°14' W 046°19'0 0.0
2017-Nov-03 13:16S 24°14' W 046°19'0 0.0
2017-Nov-03 12:52S 24°14' W 046°19'0 0.1
2017-Nov-03 12:28S 24°14' W 046°19'0 0.1
2017-Nov-03 11:58S 24°14' W 046°19'0 0.0
2017-Nov-03 11:25S 24°14' W 046°19'0 0.1
2017-Nov-03 10:58S 24°14' W 046°19'0 0.1
2017-Nov-03 10:28S 24°14' W 046°19'0 0.1
2017-Nov-03 09:58S 24°14' W 046°19'0 0.0
2017-Nov-03 09:28S 24°14' W 046°19'0 0.0
2017-Nov-03 08:52S 24°14' W 046°19'0 0.0
2017-Nov-03 08:10S 24°14' W 046°19'0 0.1
2017-Nov-03 07:46S 24°14' W 046°19'0 0.1
2017-Nov-03 07:25S 24°14' W 046°19'0 0.0
2017-Nov-03 06:58S 24°14' W 046°19'0 0.1
2017-Nov-03 06:28S 24°14' W 046°19'0 0.1
2017-Nov-03 05:58S 24°14' W 046°19'0 0.0
2017-Nov-03 05:28S 24°14' W 046°19'0 0.1
2017-Nov-03 04:58S 24°14' W 046°19'0 0.0
2017-Nov-03 04:28S 24°14' W 046°19'0 0.0
2017-Nov-03 03:52S 24°14' W 046°19'0 0.0
2017-Nov-03 03:28S 24°14' W 046°19'0 0.0
2017-Nov-03 02:58S 24°14' W 046°19'0 0.0
2017-Nov-03 02:28S 24°14' W 046°19'0 0.0
2017-Nov-03 01:58S 24°14' W 046°19'0 0.0
2017-Nov-03 01:28S 24°14' W 046°19'0 0.0
2017-Nov-03 00:52S 24°14' W 046°19'0 0.0
2017-Nov-03 00:28S 24°14' W 046°19'0 0.0
2017-Nov-02 23:58S 24°14' W 046°19'0 0.0
2017-Nov-02 23:28S 24°14' W 046°19'0 0.0
2017-Nov-02 22:58S 24°14' W 046°19'0 0.0
2017-Nov-02 22:28S 24°14' W 046°19'0 0.0
2017-Nov-02 21:52S 24°14' W 046°19'0 0.0
2017-Nov-02 21:28S 24°14' W 046°19'0 0.0
2017-Nov-02 20:58S 24°14' W 046°19'0 0.0
2017-Nov-02 19:40S 24°14' W 046°19'0 0.0
2017-Nov-02 19:28S 24°14' W 046°19'0 0.0
2017-Nov-02 18:58S 24°14' W 046°19'0 0.0
2017-Nov-02 18:28S 24°14' W 046°19'0 0.0
2017-Nov-02 17:58S 24°14' W 046°19'0 0.0
2017-Nov-02 17:04S 24°14' W 046°19'0 0.1
2017-Nov-02 16:58S 24°14' W 046°19'0 0.0
2017-Nov-02 16:28S 24°14' W 046°19'0 0.0
2017-Nov-02 13:52S 24°14' W 046°19'0 0.0
2017-Nov-02 13:28S 24°14' W 046°19'0 0.0
2017-Nov-02 12:46S 24°14' W 046°19'0 0.0
2017-Nov-02 12:22S 24°14' W 046°19'  

Dump ship's entire track history